createdAt,value
2018-06-21T00:00:29.311Z,19.40
2018-06-21T00:03:01.125Z,19.40
2018-06-21T00:05:32.907Z,19.50
2018-06-21T00:08:04.753Z,19.20
2018-06-21T00:10:36.732Z,19.10
2018-06-21T00:13:08.593Z,18.90
2018-06-21T00:15:40.415Z,18.80
2018-06-21T00:18:12.274Z,18.90
2018-06-21T00:20:44.126Z,19.20
2018-06-21T00:23:16.011Z,19.20
2018-06-21T00:25:47.836Z,19.10
2018-06-21T00:28:19.692Z,19.40
2018-06-21T00:30:51.842Z,19.10
2018-06-21T00:33:26.578Z,19.00
2018-06-21T00:35:58.426Z,19.00
2018-06-21T00:38:30.311Z,18.90
2018-06-21T00:43:33.342Z,19.00
2018-06-21T00:46:05.166Z,18.70
2018-06-21T00:48:37.026Z,18.30
2018-06-21T00:51:08.837Z,18.80
2018-06-21T00:53:41.016Z,19.00
2018-06-21T00:56:19.778Z,19.20
2018-06-21T00:58:51.534Z,19.10
2018-06-21T01:01:23.296Z,18.60
2018-06-21T01:03:55.179Z,18.20
2018-06-21T01:06:26.891Z,18.50
2018-06-21T01:08:58.674Z,18.30
2018-06-21T01:11:30.403Z,18.10
2018-06-21T01:14:02.339Z,18.40
2018-06-21T01:16:34.054Z,18.50
2018-06-21T01:19:05.937Z,18.50
2018-06-21T01:21:37.671Z,18.70
2018-06-21T01:24:09.546Z,18.60
2018-06-21T01:26:41.303Z,18.80
2018-06-21T01:31:44.179Z,18.70
2018-06-21T01:34:15.925Z,18.60
2018-06-21T01:36:48.017Z,18.30
2018-06-21T01:39:20.135Z,18.20
2018-06-21T01:41:51.888Z,18.10
2018-06-21T01:44:23.651Z,18.20
2018-06-21T01:46:55.359Z,18.40
2018-06-21T01:51:58.372Z,18.60
2018-06-21T01:54:30.172Z,18.60
2018-06-21T01:57:01.982Z,18.80
2018-06-21T01:59:33.816Z,18.50
2018-06-21T02:02:06.091Z,18.10
2018-06-21T02:04:37.984Z,18.40
2018-06-21T02:07:09.799Z,18.20
2018-06-21T02:09:41.691Z,18.50
2018-06-21T02:14:44.630Z,18.80
2018-06-21T02:17:16.415Z,18.90
2018-06-21T02:19:48.225Z,18.80
2018-06-21T02:27:22.767Z,18.20
2018-06-21T02:32:25.734Z,17.40
2018-06-21T02:34:57.579Z,17.20
2018-06-21T02:37:29.361Z,17.30
2018-06-21T02:40:01.436Z,17.70
2018-06-21T02:42:33.259Z,17.30
2018-06-21T02:45:05.479Z,17.60
2018-06-21T02:47:37.275Z,17.40
2018-06-21T02:50:09.124Z,17.60
2018-06-21T02:52:40.887Z,17.70
2018-06-21T02:55:12.729Z,17.30
2018-06-21T02:57:44.527Z,17.00
2018-06-21T03:00:16.352Z,17.30
2018-06-21T03:02:48.077Z,17.40
2018-06-21T03:05:19.867Z,17.80
2018-06-21T03:07:51.610Z,17.30
2018-06-21T03:10:23.475Z,17.00
2018-06-21T03:12:55.199Z,17.10
2018-06-21T03:15:26.984Z,17.10
2018-06-21T03:17:58.721Z,17.50
2018-06-21T03:20:30.529Z,17.60
2018-06-21T03:23:02.315Z,17.50
2018-06-21T03:25:34.219Z,17.50
2018-06-21T03:28:06.275Z,17.20
2018-06-21T03:30:38.078Z,17.00
2018-06-21T03:33:09.764Z,17.00
2018-06-21T03:35:41.511Z,17.00
2018-06-21T03:38:13.602Z,17.00
2018-06-21T03:40:45.407Z,17.00
2018-06-21T03:43:17.158Z,17.10
2018-06-21T03:45:48.943Z,17.20
2018-06-21T03:48:20.694Z,17.00
2018-06-21T03:50:52.537Z,17.00
2018-06-21T03:53:24.320Z,17.10
2018-06-21T03:55:56.133Z,17.50
2018-06-21T03:58:27.955Z,17.40
2018-06-21T04:03:32.153Z,17.50
2018-06-21T04:06:03.944Z,17.70
2018-06-21T04:11:06.987Z,17.50
2018-06-21T04:13:38.767Z,17.40
2018-06-21T04:16:10.645Z,17.40
2018-06-21T04:18:43.455Z,17.40
2018-06-21T04:21:15.206Z,17.20
2018-06-21T04:23:46.980Z,17.50
2018-06-21T04:26:18.783Z,17.90
2018-06-21T04:28:50.491Z,18.20
2018-06-21T04:31:22.599Z,18.30
2018-06-21T04:33:54.339Z,18.00
2018-06-21T04:36:26.727Z,18.20
2018-06-21T04:38:58.490Z,18.40
2018-06-21T04:41:30.344Z,18.40
2018-06-21T04:44:02.120Z,18.50
2018-06-21T04:46:33.930Z,18.20
2018-06-21T04:54:08.255Z,17.90
2018-06-21T04:59:11.330Z,18.10
2018-06-21T05:01:43.463Z,18.00
2018-06-21T05:04:15.763Z,17.80
2018-06-21T05:06:53.038Z,18.20
2018-06-21T05:09:30.416Z,18.40
2018-06-21T05:12:07.756Z,18.50
2018-06-21T05:14:45.237Z,18.50
2018-06-21T05:17:22.705Z,18.50
2018-06-21T05:20:00.073Z,18.30
2018-06-21T05:22:37.582Z,18.40
2018-06-21T05:25:14.985Z,18.30
2018-06-21T05:27:52.401Z,18.50
2018-06-21T05:30:29.864Z,18.70
2018-06-21T05:33:07.320Z,18.70
2018-06-21T05:35:44.739Z,18.60
2018-06-21T05:38:22.247Z,18.60
2018-06-21T05:40:59.796Z,18.80
2018-06-21T05:43:37.366Z,18.80
2018-06-21T05:46:14.735Z,18.80
2018-06-21T05:48:52.203Z,19.00
2018-06-21T05:51:29.540Z,19.10
2018-06-21T05:54:06.936Z,19.10
2018-06-21T05:56:44.647Z,19.20
2018-06-21T05:59:22.164Z,19.30
2018-06-21T06:01:59.637Z,19.40
2018-06-21T06:04:37.221Z,19.40
2018-06-21T06:07:14.542Z,19.50
2018-06-21T06:09:51.972Z,19.50
2018-06-21T06:12:29.567Z,19.60
2018-06-21T06:15:07.235Z,19.80
2018-06-21T06:17:44.600Z,19.80
2018-06-21T06:20:22.032Z,19.90
2018-06-21T06:22:59.632Z,19.90
2018-06-21T06:25:38.608Z,20.10
2018-06-21T06:28:16.074Z,20.20
2018-06-21T06:30:53.598Z,20.30
2018-06-21T06:33:31.086Z,20.40
2018-06-21T06:36:08.657Z,20.60
2018-06-21T06:38:46.131Z,20.70
2018-06-21T06:41:23.613Z,20.90
2018-06-21T06:44:01.013Z,20.90
2018-06-21T06:46:38.571Z,21.10
2018-06-21T06:49:16.039Z,21.10
2018-06-21T06:51:53.453Z,21.30
2018-06-21T06:54:30.932Z,21.40
2018-06-21T06:57:08.211Z,21.70
2018-06-21T06:59:45.668Z,21.80
2018-06-21T07:02:23.012Z,21.90
2018-06-21T07:05:00.486Z,22.10
2018-06-21T07:07:37.997Z,22.20
2018-06-21T07:10:15.320Z,22.30
2018-06-21T07:12:52.788Z,22.40
2018-06-21T07:15:30.222Z,22.60
2018-06-21T07:18:07.494Z,22.70
2018-06-21T07:20:44.774Z,22.60
2018-06-21T07:23:22.075Z,22.80
2018-06-21T07:25:59.395Z,22.90
2018-06-21T07:28:36.723Z,22.90
2018-06-21T07:31:14.379Z,23.10
2018-06-21T07:36:28.338Z,23.20
2018-06-21T07:39:08.306Z,23.30
2018-06-21T07:41:45.495Z,23.30
2018-06-21T07:49:36.311Z,23.60
2018-06-21T07:52:13.740Z,23.70
2018-06-21T07:54:51.199Z,23.80
2018-06-21T08:00:05.726Z,24.10
2018-06-21T08:02:43.096Z,24.30
2018-06-21T08:05:20.599Z,24.40
2018-06-21T08:07:58.080Z,24.40
2018-06-21T08:10:35.503Z,24.60
2018-06-21T08:13:12.870Z,24.80
2018-06-21T08:15:50.411Z,25.00
2018-06-21T08:18:27.773Z,25.10
2018-06-21T08:21:05.533Z,25.10
2018-06-21T08:23:42.843Z,25.20
2018-06-21T08:26:20.323Z,25.40
2018-06-21T08:28:57.807Z,25.40
2018-06-21T08:31:35.172Z,25.70
2018-06-21T08:34:12.481Z,25.60
2018-06-21T08:36:50.118Z,25.60
2018-06-21T08:39:27.809Z,26.00
2018-06-21T08:42:05.283Z,26.10
2018-06-21T08:44:42.719Z,26.00
2018-06-21T08:47:20.228Z,26.20
2018-06-21T08:49:57.747Z,26.30
2018-06-21T08:52:35.237Z,26.50
2018-06-21T08:55:12.850Z,26.40
2018-06-21T08:57:50.179Z,26.60
2018-06-21T09:00:27.551Z,26.80
2018-06-21T09:03:05.000Z,26.70
2018-06-21T09:05:42.367Z,27.10
2018-06-21T09:08:19.873Z,27.10
2018-06-21T09:10:57.187Z,26.90
2018-06-21T09:13:37.531Z,26.90
2018-06-21T09:16:14.872Z,26.80
2018-06-21T09:18:52.312Z,26.80
2018-06-21T09:21:29.552Z,27.30
2018-06-21T09:24:07.126Z,27.30
2018-06-21T09:26:44.515Z,27.80
2018-06-21T09:29:21.819Z,27.80
2018-06-21T09:31:59.258Z,27.80
2018-06-21T09:34:36.653Z,28.00
2018-06-21T09:37:13.995Z,27.80
2018-06-21T09:40:54.807Z,27.60
2018-06-21T09:43:37.200Z,27.70
2018-06-21T09:46:19.536Z,28.00
2018-06-21T09:48:56.975Z,28.10
2018-06-21T09:51:34.370Z,28.40
2018-06-21T09:54:11.749Z,28.50
2018-06-21T09:56:49.149Z,28.90
2018-06-21T09:59:26.598Z,29.20
2018-06-21T10:02:04.046Z,29.10
2018-06-21T10:04:41.666Z,29.30
2018-06-21T10:07:19.035Z,29.50
2018-06-21T10:09:56.714Z,29.40
2018-06-21T10:12:34.301Z,29.10
2018-06-21T10:15:11.665Z,29.10
2018-06-21T10:17:49.097Z,28.60
2018-06-21T10:20:26.632Z,28.90
2018-06-21T10:23:04.342Z,29.10
2018-06-21T10:25:41.674Z,29.10
2018-06-21T10:28:19.271Z,29.60
2018-06-21T10:30:56.597Z,29.30
2018-06-21T10:33:34.024Z,29.40
2018-06-21T10:36:11.528Z,29.30
2018-06-21T10:38:49.172Z,28.70
2018-06-21T10:41:26.729Z,28.80
2018-06-21T10:44:04.802Z,28.50
2018-06-21T10:46:42.289Z,28.40
2018-06-21T10:49:19.868Z,28.30
2018-06-21T10:51:57.401Z,28.40
2018-06-21T10:54:35.001Z,28.30
2018-06-21T10:57:12.340Z,28.20
2018-06-21T10:59:49.860Z,28.60
2018-06-21T11:02:27.366Z,28.70
2018-06-21T11:05:06.796Z,28.70
2018-06-21T11:07:44.004Z,28.50
2018-06-21T11:10:21.417Z,28.90
2018-06-21T11:12:58.758Z,29.30
2018-06-21T11:15:36.195Z,29.10
2018-06-21T11:18:13.594Z,28.70
2018-06-21T11:20:50.875Z,28.40
2018-06-21T11:23:28.171Z,28.20
2018-06-21T11:26:05.883Z,28.50
2018-06-21T11:28:43.141Z,28.50
2018-06-21T11:31:20.454Z,28.80
2018-06-21T11:33:57.727Z,28.50
2018-06-21T11:36:35.086Z,28.20
2018-06-21T11:39:12.588Z,28.20
2018-06-21T11:41:50.079Z,28.50
2018-06-21T11:44:27.431Z,29.20
2018-06-21T11:47:04.894Z,29.60
2018-06-21T11:49:42.323Z,29.50
2018-06-21T11:52:19.790Z,29.50
2018-06-21T11:54:57.254Z,29.60
2018-06-21T11:57:34.782Z,30.00
2018-06-21T12:00:12.240Z,29.80
2018-06-21T12:02:49.824Z,29.80
2018-06-21T12:05:27.364Z,29.90
2018-06-21T12:08:05.297Z,28.90
2018-06-21T12:10:43.093Z,29.10
2018-06-21T12:13:20.691Z,29.30
2018-06-21T12:15:58.039Z,29.60
2018-06-21T12:18:35.518Z,29.50
2018-06-21T12:21:13.020Z,29.10
2018-06-21T12:23:50.524Z,29.30
2018-06-21T12:26:33.383Z,29.60
2018-06-21T12:29:11.067Z,30.00
2018-06-21T12:31:48.512Z,29.80
2018-06-21T12:34:28.955Z,29.90
2018-06-21T12:37:06.684Z,29.70
2018-06-21T12:39:44.158Z,29.60
2018-06-21T12:42:22.477Z,29.60
2018-06-21T12:45:00.016Z,29.50
2018-06-21T12:47:37.489Z,29.80
2018-06-21T12:50:15.884Z,30.20
2018-06-21T12:52:53.230Z,30.10
2018-06-21T12:55:30.688Z,30.20
2018-06-21T12:58:08.188Z,30.30
2018-06-21T13:00:45.695Z,30.20
2018-06-21T13:03:23.145Z,30.30
2018-06-21T13:06:00.639Z,30.60
2018-06-21T13:08:54.522Z,30.10
2018-06-21T13:12:48.462Z,30.40
2018-06-21T13:15:25.878Z,30.30
2018-06-21T13:18:03.401Z,30.60
2018-06-21T13:20:40.894Z,30.70
2018-06-21T13:23:18.461Z,30.40
2018-06-21T13:25:55.978Z,30.70
2018-06-21T13:28:33.331Z,30.70
2018-06-21T13:31:11.636Z,30.70
2018-06-21T13:33:49.754Z,31.10
2018-06-21T13:36:27.295Z,30.50
2018-06-21T13:39:06.432Z,28.90
2018-06-21T13:41:44.034Z,28.90
2018-06-21T13:44:21.834Z,29.10
2018-06-21T13:47:00.822Z,30.60
2018-06-21T13:49:38.405Z,30.20
2018-06-21T13:52:16.039Z,30.20
2018-06-21T13:54:53.758Z,29.60
2018-06-21T13:57:31.816Z,29.20
2018-06-21T14:00:09.773Z,28.60
2018-06-21T14:02:47.452Z,28.60
2018-06-21T14:05:25.158Z,28.70
2018-06-21T14:08:03.009Z,28.50
2018-06-21T14:10:42.077Z,28.00
2018-06-21T14:13:20.282Z,28.00
2018-06-21T14:15:57.862Z,26.70
2018-06-21T14:18:35.366Z,24.90
2018-06-21T14:21:12.944Z,24.60
2018-06-21T14:23:50.691Z,25.00
2018-06-21T14:26:28.159Z,24.40
2018-06-21T14:29:06.051Z,24.40
2018-06-21T14:31:43.582Z,23.90
2018-06-21T14:34:21.645Z,23.60
2018-06-21T14:36:59.179Z,22.40
2018-06-21T14:39:36.688Z,22.10
2018-06-21T14:42:14.166Z,21.90
2018-06-21T14:44:51.562Z,22.40
2018-06-21T14:47:28.939Z,22.20
2018-06-21T14:50:06.341Z,21.60
2018-06-21T14:52:43.842Z,21.70
2018-06-21T14:55:21.298Z,21.70
2018-06-21T14:57:58.743Z,22.50
2018-06-21T15:00:36.017Z,22.50
2018-06-21T15:03:13.753Z,22.30
2018-06-21T15:05:51.163Z,22.40
2018-06-21T15:08:28.735Z,22.80
2018-06-21T15:11:06.267Z,23.00
2018-06-21T15:13:47.697Z,23.00
2018-06-21T15:16:25.188Z,23.50
2018-06-21T15:21:39.937Z,24.60
2018-06-21T15:24:17.332Z,26.30
2018-06-21T15:26:54.891Z,27.10
2018-06-21T15:29:32.536Z,27.30
2018-06-21T15:32:10.137Z,27.90
2018-06-21T15:34:47.576Z,28.20
2018-06-21T15:37:24.977Z,28.00
2018-06-21T15:40:02.753Z,27.50
2018-06-21T15:42:40.017Z,27.00
2018-06-21T15:45:17.585Z,26.70
2018-06-21T15:47:55.101Z,27.40
2018-06-21T15:50:32.601Z,27.20
2018-06-21T15:53:10.094Z,27.70
2018-06-21T15:55:47.730Z,28.20
2018-06-21T15:58:25.198Z,29.00
2018-06-21T16:01:02.929Z,28.90
2018-06-21T16:03:41.630Z,28.70
2018-06-21T16:06:19.137Z,28.90
2018-06-21T16:08:56.604Z,29.10
2018-06-21T16:14:11.070Z,29.60
2018-06-21T16:16:48.574Z,29.40
2018-06-21T16:19:25.941Z,29.20
2018-06-21T16:22:03.460Z,28.80
2018-06-21T16:24:40.924Z,28.10
2018-06-21T16:27:19.482Z,27.20
2018-06-21T16:29:56.839Z,26.70
2018-06-21T16:32:34.315Z,27.60
2018-06-21T16:35:11.719Z,27.90
2018-06-21T16:37:49.395Z,27.20
2018-06-21T16:40:27.106Z,26.40
2018-06-21T16:43:04.443Z,26.30
2018-06-21T16:45:41.996Z,26.00
2018-06-21T16:48:19.672Z,25.70
2018-06-21T16:50:57.050Z,26.30
2018-06-21T16:53:34.867Z,27.10
2018-06-21T16:56:12.236Z,27.20
2018-06-21T16:58:49.857Z,26.80
2018-06-21T17:01:27.396Z,26.10
2018-06-21T17:04:04.811Z,25.60
2018-06-21T17:06:42.499Z,25.60
2018-06-21T17:09:19.864Z,25.30
2018-06-21T17:11:57.341Z,25.00
2018-06-21T17:14:34.919Z,25.20
2018-06-21T17:17:12.428Z,24.70
2018-06-21T17:19:50.059Z,24.40
2018-06-21T17:22:27.507Z,24.20
2018-06-21T17:25:05.238Z,24.20
2018-06-21T17:27:43.430Z,24.40
2018-06-21T17:30:21.041Z,24.20
2018-06-21T17:32:58.458Z,24.30
2018-06-21T17:35:35.883Z,24.50
2018-06-21T17:38:15.220Z,24.20
2018-06-21T17:40:53.615Z,24.00
2018-06-21T17:43:31.231Z,24.00
2018-06-21T17:46:08.689Z,24.30
2018-06-21T17:48:46.448Z,24.10
2018-06-21T17:51:24.219Z,24.10
2018-06-21T17:54:01.638Z,24.00
2018-06-21T17:56:39.147Z,23.60
2018-06-21T17:59:16.697Z,23.60
2018-06-21T18:01:54.255Z,23.80
2018-06-21T18:04:31.717Z,23.60
2018-06-21T18:07:09.169Z,23.70
2018-06-21T18:09:47.038Z,23.20
2018-06-21T18:12:24.744Z,23.10
2018-06-21T18:15:04.000Z,23.20
2018-06-21T18:17:41.750Z,23.40
2018-06-21T18:20:19.227Z,23.10
2018-06-21T18:22:56.656Z,23.20
2018-06-21T18:25:34.051Z,23.10
2018-06-21T18:28:11.602Z,23.10
2018-06-21T18:30:49.389Z,22.80
2018-06-21T18:33:27.099Z,22.80
2018-06-21T18:36:04.747Z,22.70
2018-06-21T18:38:45.304Z,22.40
2018-06-21T18:41:22.839Z,22.40
2018-06-21T18:44:00.301Z,22.30
2018-06-21T18:46:38.096Z,22.10
2018-06-21T18:49:15.835Z,22.00
2018-06-21T18:51:53.264Z,21.90
2018-06-21T18:54:30.804Z,21.90
2018-06-21T18:57:08.423Z,21.90
2018-06-21T18:59:45.940Z,22.00
2018-06-21T19:02:23.303Z,21.90
2018-06-21T19:05:00.913Z,21.70
2018-06-21T19:07:42.015Z,21.80
2018-06-21T19:10:24.643Z,21.60
2018-06-21T19:13:02.140Z,21.40
2018-06-21T19:15:40.780Z,20.90
2018-06-21T19:18:18.441Z,21.10
2018-06-21T19:20:56.407Z,20.90
2018-06-21T19:23:34.611Z,20.70
2018-06-21T19:26:12.190Z,19.80
2018-06-21T19:28:49.810Z,19.50
2018-06-21T19:31:29.920Z,19.30
2018-06-21T19:34:07.638Z,18.90
2018-06-21T19:36:45.298Z,18.80
2018-06-21T19:39:22.978Z,18.90
2018-06-21T19:42:00.483Z,18.60
2018-06-21T19:44:38.020Z,18.40
2018-06-21T19:47:15.465Z,18.60
2018-06-21T19:49:52.905Z,18.70
2018-06-21T19:52:30.975Z,18.70
2018-06-21T19:55:08.591Z,18.30
2018-06-21T19:57:46.018Z,18.30
2018-06-21T20:00:23.707Z,18.30
2018-06-21T20:03:01.888Z,18.40
2018-06-21T20:05:39.339Z,18.30
2018-06-21T20:08:17.015Z,18.10
2018-06-21T20:11:00.507Z,17.90
2018-06-21T20:13:48.259Z,18.30
2018-06-21T20:16:25.731Z,18.00
2018-06-21T20:19:13.987Z,18.00
2018-06-21T20:21:51.386Z,18.30
2018-06-21T20:24:28.876Z,18.20
2018-06-21T20:27:06.398Z,18.20
2018-06-21T20:29:43.944Z,18.50
2018-06-21T20:32:22.287Z,18.60
2018-06-21T20:34:59.952Z,18.90
2018-06-21T20:37:37.264Z,18.80
2018-06-21T20:40:15.297Z,19.10
2018-06-21T20:42:52.676Z,19.00
2018-06-21T20:45:30.084Z,18.50
2018-06-21T20:48:07.484Z,18.60
2018-06-21T20:50:45.297Z,18.50
2018-06-21T20:53:22.765Z,18.30
2018-06-21T20:56:00.144Z,18.10
2018-06-21T20:58:37.448Z,18.10
2018-06-21T21:01:15.177Z,18.10
2018-06-21T21:03:52.405Z,18.60
2018-06-21T21:06:30.016Z,18.50
2018-06-21T21:09:08.830Z,18.40
2018-06-21T21:11:46.297Z,18.20
2018-06-21T21:14:23.605Z,18.00
2018-06-21T21:17:01.155Z,18.10
2018-06-21T21:19:38.507Z,18.50
2018-06-21T21:22:16.040Z,18.70
2018-06-21T21:24:53.448Z,18.60
2018-06-21T21:27:30.826Z,18.30
2018-06-21T21:30:09.620Z,18.10
2018-06-21T21:32:46.907Z,18.00
2018-06-21T21:35:24.324Z,18.10
2018-06-21T21:38:01.772Z,18.20
2018-06-21T21:40:39.220Z,18.10
2018-06-21T21:43:16.524Z,18.20
2018-06-21T21:45:53.733Z,18.30
2018-06-21T21:48:30.984Z,18.30
2018-06-21T21:51:08.385Z,18.20
2018-06-21T21:53:45.626Z,18.10
2018-06-21T21:56:23.145Z,18.00
2018-06-21T21:59:00.521Z,17.90
2018-06-21T22:01:37.785Z,18.40
2018-06-21T22:04:15.768Z,18.20
2018-06-21T22:06:53.157Z,17.90
2018-06-21T22:09:30.784Z,17.60
2018-06-21T22:12:09.023Z,17.50
2018-06-21T22:14:46.524Z,17.50
2018-06-21T22:17:24.044Z,17.30
2018-06-21T22:20:01.605Z,17.30
2018-06-21T22:22:38.959Z,17.20
2018-06-21T22:25:16.632Z,17.10
2018-06-21T22:27:53.985Z,17.00
2018-06-21T22:30:31.609Z,17.00
2018-06-21T22:33:08.936Z,16.90
2018-06-21T22:35:46.158Z,17.00
2018-06-21T22:38:23.531Z,17.00
2018-06-21T22:41:01.053Z,17.00
2018-06-21T22:43:39.090Z,16.80
2018-06-21T22:46:16.678Z,16.60
2018-06-21T22:48:54.051Z,16.50
2018-06-21T22:51:31.674Z,16.40
2018-06-21T22:54:09.466Z,16.40
2018-06-21T22:56:46.891Z,16.40
2018-06-21T22:59:24.251Z,16.30
2018-06-21T23:02:01.654Z,16.30
2018-06-21T23:04:38.971Z,16.10
2018-06-21T23:07:16.496Z,16.40
2018-06-21T23:09:54.044Z,16.30
2018-06-21T23:12:31.307Z,16.60
2018-06-21T23:15:08.795Z,16.30
2018-06-21T23:17:46.205Z,16.40
2018-06-21T23:20:23.592Z,16.30
2018-06-21T23:23:00.973Z,16.40
2018-06-21T23:25:38.537Z,16.30
2018-06-21T23:28:15.951Z,16.20
2018-06-21T23:30:53.315Z,16.00
2018-06-21T23:33:30.718Z,15.90
2018-06-21T23:36:09.018Z,16.00
2018-06-21T23:38:46.435Z,16.20
2018-06-21T23:41:23.672Z,16.30
2018-06-21T23:44:01.077Z,16.10
2018-06-21T23:46:38.556Z,16.20
2018-06-21T23:49:16.054Z,15.90
2018-06-21T23:51:53.323Z,15.70
2018-06-21T23:54:30.653Z,15.60
2018-06-21T23:57:07.892Z,15.60
2018-06-21T23:59:45.138Z,15.70
